Time;durP1;ratioP1;P1;durP2;ratioP2;P2;SDS_P1;SDS_P2;PMS_P1;PMS_P2;Temp;Humidity;BMP_temperature;BMP_pressure;BME280_temperature;BME280_humidity;BME280_pressure;Samples;Min_cycle;Max_cycle;Signal;HPM_P1;HPM_P2
2021/12/05 00:22:16;;;;;;;0.90;0.90;;;-6.70;99.90;;;;;;5080198;28;20283;-83
2021/12/05 00:24:47;;;;;;;0.80;0.80;;;-6.70;99.90;;;;;;5066403;28;20569;-84
2021/12/05 00:27:20;;;;;;;0.97;0.97;;;-6.60;99.90;;;;;;5056959;28;20687;-86
2021/12/05 00:32:49;;;;;;;0.90;0.90;;;-6.50;99.90;;;;;;5075047;28;20251;-86
2021/12/05 00:35:57;;;;;;;2.50;1.47;;;-6.40;99.90;;;;;;5068162;28;20295;-86
2021/12/05 00:49:31;;;;;;;0.93;0.93;;;-6.20;99.90;;;;;;5074516;28;20215;-84
2021/12/05 00:57:39;;;;;;;0.90;0.90;;;-6.20;99.90;;;;;;5074451;28;20695;-84
2021/12/05 01:00:29;;;;;;;0.90;0.90;;;-6.20;99.90;;;;;;5056254;28;20220;-84
2021/12/05 01:16:23;;;;;;;0.80;0.80;;;-6.30;99.90;;;;;;5074405;28;20212;-84
2021/12/05 01:18:49;;;;;;;0.90;0.90;;;-6.40;99.90;;;;;;5056087;28;20279;-84
2021/12/05 01:21:19;;;;;;;1.00;1.00;;;-6.40;99.90;;;;;;5054963;28;20228;-84
2021/12/05 01:24:02;;;;;;;0.90;0.90;;;-6.30;99.90;;;;;;5050087;28;20672;-83
2021/12/05 01:26:40;;;;;;;0.90;0.90;;;-6.30;99.90;;;;;;5050325;28;20304;-84
2021/12/05 01:31:50;;;;;;;0.90;0.90;;;-6.40;99.90;;;;;;5072301;28;20275;-83
2021/12/05 01:42:34;;;;;;;0.90;0.90;;;-6.00;99.90;;;;;;5074734;28;20232;-84
2021/12/05 02:01:42;;;;;;;0.90;0.90;;;-5.50;99.90;;;;;;5073547;28;20277;-87
2021/12/05 02:15:51;;;;;;;0.80;0.80;;;-5.40;99.90;;;;;;5001969;28;20217;-87
2021/12/05 02:43:13;;;;;;;0.90;0.90;;;-5.50;99.90;;;;;;5000710;28;20215;-89
2021/12/05 02:45:46;;;;;;;0.70;0.70;;;-5.60;99.90;;;;;;5054880;28;20209;-89
2021/12/05 02:48:13;;;;;;;0.80;0.80;;;-5.60;99.90;;;;;;5055577;28;20215;-89
2021/12/05 02:50:40;;;;;;;0.90;0.90;;;-5.70;99.90;;;;;;5051378;28;20240;-89
2021/12/05 02:53:22;;;;;;;0.90;0.90;;;-5.70;99.90;;;;;;5050805;28;20694;-89
2021/12/05 02:55:50;;;;;;;0.80;0.80;;;-5.80;99.90;;;;;;5052589;28;20687;-87
2021/12/05 02:58:32;;;;;;;0.80;0.80;;;-5.90;99.90;;;;;;5051999;28;20217;-87
2021/12/05 03:03:30;;;;;;;1.10;1.10;;;-6.10;99.90;;;;;;5073130;28;20212;-87
2021/12/05 03:06:04;;;;;;;0.90;0.90;;;-6.20;99.90;;;;;;5059551;28;20665;-87
2021/12/05 03:08:30;;;;;;;0.80;0.80;;;-6.20;99.90;;;;;;5062050;28;20220;-89
2021/12/05 03:10:59;;;;;;;1.10;1.10;;;-6.30;99.90;;;;;;5072842;28;20220;-89
2021/12/05 03:13:26;;;;;;;0.90;0.90;;;-6.20;99.90;;;;;;5059007;28;20295;-89
2021/12/05 03:15:52;;;;;;;0.90;0.90;;;-6.20;99.90;;;;;;5066338;28;20553;-89
2021/12/05 03:18:18;;;;;;;0.80;0.80;;;-6.30;99.90;;;;;;5052279;28;20208;-89
2021/12/05 03:20:44;;;;;;;1.43;1.33;;;-6.40;99.90;;;;;;5054747;28;20277;-89
2021/12/05 03:23:11;;;;;;;0.90;0.90;;;-6.40;99.90;;;;;;5054281;28;20213;-89
2021/12/05 03:25:37;;;;;;;0.80;0.80;;;-6.30;99.90;;;;;;5054894;28;20238;-89
2021/12/05 03:28:06;;;;;;;0.80;0.80;;;-6.30;99.90;;;;;;5052844;28;20217;-88
2021/12/05 03:30:32;;;;;;;0.80;0.80;;;-6.40;99.90;;;;;;5055673;28;20204;-89
2021/12/05 03:32:58;;;;;;;0.73;0.73;;;-6.40;99.90;;;;;;5056887;28;20266;-89
2021/12/05 03:35:28;;;;;;;0.90;0.90;;;-6.50;99.90;;;;;;5056575;28;20205;-88
2021/12/05 03:37:54;;;;;;;1.30;1.20;;;-6.50;99.90;;;;;;5055729;28;20676;-89
2021/12/05 03:40:23;;;;;;;0.90;0.90;;;-6.40;99.90;;;;;;5070911;28;20756;-89
2021/12/05 03:42:50;;;;;;;0.90;0.90;;;-6.30;99.90;;;;;;5055070;28;20660;-89
2021/12/05 03:45:25;;;;;;;0.80;0.80;;;-6.20;99.90;;;;;;5047748;28;20362;-89
2021/12/05 03:47:51;;;;;;;0.93;0.93;;;-6.20;99.90;;;;;;5049302;28;20636;-88
2021/12/05 03:50:17;;;;;;;0.90;0.90;;;-6.30;99.90;;;;;;5071064;28;20289;-89
2021/12/05 03:52:46;;;;;;;1.00;1.00;;;-6.40;99.90;;;;;;5055711;28;20220;-89
2021/12/05 03:55:14;;;;;;;0.83;0.83;;;-6.40;99.90;;;;;;5066961;28;20701;-89
2021/12/05 03:57:40;;;;;;;0.90;0.90;;;-6.40;99.90;;;;;;5070889;28;20220;-89
2021/12/05 04:00:28;;;;;;;1.00;1.00;;;-6.50;99.90;;;;;;5062157;28;20312;-89
2021/12/05 04:02:56;;;;;;;0.90;0.90;;;-6.60;99.90;;;;;;5052622;28;20205;-89
2021/12/05 04:05:23;;;;;;;1.00;1.00;;;-6.50;99.90;;;;;;5042261;28;20259;-88
2021/12/05 04:07:49;;;;;;;0.90;0.90;;;-6.50;99.90;;;;;;5052352;28;20223;-89
2021/12/05 04:10:15;;;;;;;0.90;0.90;;;-6.40;99.90;;;;;;5058766;28;20295;-88
2021/12/05 04:12:43;;;;;;;0.90;0.90;;;-6.40;99.90;;;;;;5075094;28;20580;-89
2021/12/05 04:15:10;;;;;;;0.80;0.80;;;-6.50;99.90;;;;;;5059819;28;20761;-90
2021/12/05 04:17:38;;;;;;;0.80;0.80;;;-6.50;99.90;;;;;;5064905;28;20707;-89
2021/12/05 04:20:08;;;;;;;0.90;0.90;;;-6.60;99.90;;;;;;5073261;28;20205;-89
2021/12/05 04:22:34;;;;;;;1.00;1.00;;;-6.50;99.90;;;;;;5062710;28;20221;-89
2021/12/05 04:25:04;;;;;;;0.90;0.90;;;-6.50;99.90;;;;;;5046338;28;20304;-88
2021/12/05 04:27:30;;;;;;;0.90;0.90;;;-6.50;99.90;;;;;;5055797;28;20220;-89
2021/12/05 04:29:56;;;;;;;0.90;0.90;;;-6.50;99.90;;;;;;5061956;28;20680;-89
2021/12/05 04:32:24;;;;;;;0.80;0.80;;;-6.60;99.90;;;;;;5049048;28;20219;-88
2021/12/05 04:34:50;;;;;;;1.00;1.00;;;-6.50;99.90;;;;;;5058368;28;20243;-89
2021/12/05 04:37:18;;;;;;;0.90;0.90;;;-6.60;99.90;;;;;;5057710;28;20241;-89
2021/12/05 04:39:46;;;;;;;0.80;0.80;;;-6.70;99.90;;;;;;5053782;28;20205;-89
2021/12/05 04:42:14;;;;;;;0.90;0.90;;;-6.70;99.90;;;;;;5058914;28;20220;-89
2021/12/05 04:44:40;;;;;;;0.90;0.90;;;-6.70;99.90;;;;;;5056069;28;20759;-89
2021/12/05 04:47:09;;;;;;;0.80;0.80;;;-6.60;99.90;;;;;;5052966;28;20237;-90
2021/12/05 04:49:36;;;;;;;0.90;0.90;;;-6.70;99.90;;;;;;5054713;28;20208;-90
2021/12/05 04:52:03;;;;;;;0.90;0.90;;;-6.70;99.90;;;;;;5054406;28;20201;-90
2021/12/05 04:54:28;;;;;;;0.90;0.90;;;-6.80;99.90;;;;;;5073323;28;20295;-89
2021/12/05 04:56:58;;;;;;;0.80;0.80;;;-6.80;99.90;;;;;;5072639;28;20343;-89
2021/12/05 04:59:26;;;;;;;0.90;0.90;;;-6.90;99.90;;;;;;5055081;28;20224;-89
2021/12/05 05:01:56;;;;;;;0.90;0.90;;;-6.90;99.90;;;;;;5055780;28;20212;-89
2021/12/05 05:04:26;;;;;;;0.90;0.90;;;-6.90;99.90;;;;;;5022761;28;20228;-89
2021/12/05 05:06:58;;;;;;;1.00;1.00;;;-7.00;99.90;;;;;;5057140;28;20703;-89
2021/12/05 05:09:24;;;;;;;0.90;0.90;;;-6.90;99.90;;;;;;5056500;28;20299;-89
2021/12/05 05:11:53;;;;;;;0.90;0.90;;;-6.90;99.90;;;;;;5073195;28;20743;-89
2021/12/05 05:14:19;;;;;;;0.90;0.90;;;-7.00;99.90;;;;;;5056417;28;20209;-89
2021/12/05 05:16:47;;;;;;;0.80;0.80;;;-6.90;99.90;;;;;;5074207;28;20664;-90
2021/12/05 05:19:18;;;;;;;1.57;1.47;;;-6.90;99.90;;;;;;5058307;28;20253;-89
2021/12/05 05:21:55;;;;;;;1.67;1.57;;;-6.80;99.90;;;;;;5057553;28;20212;-88
2021/12/05 05:24:53;;;;;;;1.03;1.03;;;-6.70;99.90;;;;;;5056606;28;20318;-89
2021/12/05 05:41:03;;;;;;;0.80;0.80;;;-6.50;99.90;;;;;;5056019;28;20690;-90
2021/12/05 05:46:39;;;;;;;0.80;0.80;;;-6.40;99.90;;;;;;5012608;28;20257;-89
2021/12/05 05:51:59;;;;;;;0.80;0.80;;;-6.40;99.90;;;;;;5044810;28;20213;-88
2021/12/05 05:54:28;;;;;;;0.90;0.90;;;-6.40;99.90;;;;;;5055617;28;20201;-89
2021/12/05 05:57:06;;;;;;;0.90;0.90;;;-6.40;99.90;;;;;;5056018;28;20212;-91
2021/12/05 05:59:45;;;;;;;0.90;0.90;;;-6.50;99.90;;;;;;5057235;28;20221;-88
2021/12/05 06:04:40;;;;;;;0.80;0.80;;;-6.40;99.90;;;;;;5071642;28;20601;-88
2021/12/05 06:07:05;;;;;;;0.90;0.90;;;-6.50;99.90;;;;;;5057308;28;20237;-89
2021/12/05 06:09:31;;;;;;;1.00;1.00;;;-6.60;99.90;;;;;;5062037;28;20240;-89
2021/12/05 06:11:57;;;;;;;1.00;1.00;;;-6.70;99.90;;;;;;5063162;28;20220;-89
2021/12/05 06:14:25;;;;;;;1.00;1.00;;;-6.80;99.90;;;;;;5055472;28;20209;-89
2021/12/05 06:16:50;;;;;;;0.90;0.90;;;-6.80;99.90;;;;;;5058247;28;20205;-89
2021/12/05 06:19:16;;;;;;;0.90;0.90;;;-6.90;99.90;;;;;;5065184;28;20205;-89
2021/12/05 06:21:42;;;;;;;0.83;0.83;;;-7.00;99.90;;;;;;5056087;28;20213;-89
2021/12/05 06:24:10;;;;;;;0.80;0.80;;;-7.10;99.90;;;;;;5057057;28;20242;-89
2021/12/05 06:26:36;;;;;;;0.90;0.90;;;-7.10;99.90;;;;;;5068360;28;20265;-88
2021/12/05 06:29:09;;;;;;;0.90;0.90;;;-7.10;99.90;;;;;;5055612;28;20201;-89
2021/12/05 06:37:25;;;;;;;0.90;0.90;;;-7.10;99.90;;;;;;5074137;28;20220;-89
2021/12/05 06:40:03;;;;;;;0.90;0.90;;;-7.20;99.90;;;;;;5073824;28;20201;-90
2021/12/05 06:42:49;;;;;;;0.80;0.80;;;-7.10;99.90;;;;;;5062286;28;20626;-90
2021/12/05 06:48:02;;;;;;;0.90;0.90;;;-7.00;99.90;;;;;;5072922;28;20265;-89
2021/12/05 06:50:28;;;;;;;0.80;0.80;;;-6.90;99.90;;;;;;5067787;28;20246;-89
2021/12/05 06:52:54;;;;;;;0.90;0.90;;;-7.00;99.90;;;;;;5060390;28;20265;-90
2021/12/05 06:55:22;;;;;;;0.90;0.90;;;-7.00;99.90;;;;;;5054888;28;20209;-90
2021/12/05 06:57:51;;;;;;;1.10;1.10;;;-7.10;99.90;;;;;;5047047;28;20297;-89
2021/12/05 07:00:23;;;;;;;0.93;0.93;;;-7.10;99.90;;;;;;5044696;28;20244;-90
2021/12/05 07:02:52;;;;;;;0.90;0.90;;;-7.00;99.90;;;;;;5051900;28;20214;-89
2021/12/05 07:05:41;;;;;;;0.80;0.80;;;-7.00;99.90;;;;;;5051607;28;20214;-88
2021/12/05 07:08:09;;;;;;;0.90;0.90;;;-7.00;99.90;;;;;;5051092;28;20574;-89
2021/12/05 07:10:45;;;;;;;0.70;0.70;;;-7.00;99.90;;;;;;5050752;28;20223;-87
2021/12/05 07:16:07;;;;;;;0.90;0.90;;;-6.90;99.90;;;;;;5045470;28;20228;-90
2021/12/05 07:18:40;;;;;;;0.90;0.90;;;-6.90;99.90;;;;;;5041420;28;20695;-89
2021/12/05 07:24:02;;;;;;;0.90;0.90;;;-6.80;99.90;;;;;;5052376;28;20216;-89
2021/12/05 07:40:28;;;;;;;0.83;0.83;;;-6.80;99.90;;;;;;5057027;28;20217;-89
2021/12/05 07:43:02;;;;;;;1.60;1.50;;;-6.80;99.90;;;;;;5038520;28;20209;-88
2021/12/05 07:45:40;;;;;;;0.93;0.93;;;-6.80;99.90;;;;;;5039825;28;20216;-88
2021/12/05 07:48:18;;;;;;;0.80;0.80;;;-6.80;99.90;;;;;;5039183;28;20201;-89
2021/12/05 07:51:11;;;;;;;0.90;0.90;;;-6.80;99.90;;;;;;5053701;28;20248;-88
2021/12/05 07:53:48;;;;;;;0.90;0.90;;;-6.80;99.90;;;;;;5041895;28;20209;-89
2021/12/05 07:56:40;;;;;;;0.90;0.90;;;-6.70;99.90;;;;;;5053390;28;20632;-87
2021/12/05 07:59:30;;;;;;;0.80;0.80;;;-6.70;99.90;;;;;;5058867;28;20213;-88
2021/12/05 08:15:51;;;;;;;0.80;0.80;;;-6.70;99.90;;;;;;5074666;28;20211;-88
2021/12/05 08:18:17;;;;;;;1.00;1.00;;;-6.60;99.90;;;;;;5059803;28;20312;-88
2021/12/05 08:20:45;;;;;;;0.90;0.90;;;-6.60;99.90;;;;;;5058227;28;20240;-88
2021/12/05 08:23:12;;;;;;;0.90;0.90;;;-6.60;99.90;;;;;;5070773;28;20679;-89
2021/12/05 08:25:43;;;;;;;0.90;0.90;;;-6.60;99.90;;;;;;5056679;28;20212;-89
2021/12/05 08:31:15;;;;;;;0.90;0.90;;;-6.60;99.90;;;;;;5028606;28;20265;-89
2021/12/05 08:40:00;;;;;;;0.90;0.90;;;-6.40;99.90;;;;;;5075815;28;20585;-89
2021/12/05 09:39:38;;;;;;;0.93;0.93;;;-6.00;99.90;;;;;;5075240;28;20277;-88
2021/12/05 10:12:34;;;;;;;0.90;0.90;;;-6.30;99.90;;;;;;5055176;28;20318;-88
2021/12/05 10:27:27;;;;;;;1.00;1.00;;;-6.40;99.90;;;;;;4991861;28;20713;-88
2021/12/05 10:38:32;;;;;;;0.83;0.83;;;-6.30;99.90;;;;;;4993135;28;20221;-88
2021/12/05 10:41:19;;;;;;;0.90;0.90;;;-6.30;99.90;;;;;;4981498;28;20305;-88
2021/12/05 10:43:50;;;;;;;0.90;0.90;;;-6.20;99.90;;;;;;4976369;28;20219;-88
2021/12/05 10:46:18;;;;;;;0.90;0.90;;;-6.30;99.90;;;;;;4991527;28;20789;-88
2021/12/05 10:48:51;;;;;;;0.90;0.90;;;-6.30;99.90;;;;;;4991272;28;20247;-88
2021/12/05 10:51:25;;;;;;;1.10;1.10;;;-6.20;99.90;;;;;;4991420;28;20215;-90
2021/12/05 10:53:53;;;;;;;1.43;1.37;;;-6.20;99.90;;;;;;5018914;28;20594;-89
2021/12/05 10:56:35;;;;;;;0.83;0.83;;;-6.30;99.90;;;;;;5056231;28;20240;-89
2021/12/05 10:59:10;;;;;;;0.80;0.80;;;-6.20;99.90;;;;;;5055008;28;20212;-89
2021/12/05 11:02:00;;;;;;;0.90;0.90;;;-6.10;99.90;;;;;;5045631;28;20242;-89
2021/12/05 11:04:31;;;;;;;0.80;0.80;;;-6.20;99.90;;;;;;5048850;28;20631;-89
2021/12/05 11:06:58;;;;;;;0.80;0.80;;;-6.20;99.90;;;;;;5070827;28;20671;-89
2021/12/05 11:09:33;;;;;;;0.90;0.90;;;-6.20;99.90;;;;;;5060524;28;20212;-88
2021/12/05 11:12:08;;;;;;;1.00;1.00;;;-6.20;99.90;;;;;;5060446;28;20219;-89
2021/12/05 11:14:39;;;;;;;1.00;1.00;;;-6.20;99.90;;;;;;5067453;28;20204;-89
2021/12/05 11:17:14;;;;;;;0.90;0.90;;;-6.30;99.90;;;;;;5045750;28;20605;-88
2021/12/05 11:19:44;;;;;;;0.90;0.90;;;-6.20;99.90;;;;;;5074186;28;20711;-88
2021/12/05 11:22:23;;;;;;;0.90;0.90;;;-6.20;99.90;;;;;;5062772;28;20259;-88
2021/12/05 11:25:15;;;;;;;0.90;0.90;;;-6.10;99.90;;;;;;5056206;28;20698;-88
2021/12/05 11:27:54;;;;;;;0.90;0.90;;;-6.10;99.90;;;;;;5056503;28;20683;-88
2021/12/05 11:30:33;;;;;;;0.90;0.90;;;-6.10;99.90;;;;;;5061134;28;20204;-88
2021/12/05 11:33:08;;;;;;;0.90;0.90;;;-6.10;99.90;;;;;;5060828;28;20212;-88
2021/12/05 11:35:47;;;;;;;0.90;0.90;;;-6.10;99.90;;;;;;5061605;28;20211;-88
2021/12/05 11:38:22;;;;;;;0.90;0.90;;;-6.10;99.90;;;;;;5062260;28;20215;-89
2021/12/05 11:40:53;;;;;;;0.80;0.80;;;-6.20;99.90;;;;;;5060576;28;20200;-88
2021/12/05 11:43:37;;;;;;;0.83;0.83;;;-6.20;99.90;;;;;;5057719;28;20213;-88
2021/12/05 11:46:33;;;;;;;0.90;0.90;;;-6.30;99.90;;;;;;5062313;28;20260;-88
2021/12/05 11:49:05;;;;;;;0.80;0.80;;;-6.20;99.90;;;;;;5045846;28;20696;-88
2021/12/05 11:51:37;;;;;;;0.80;0.80;;;-6.30;99.90;;;;;;5065691;28;20212;-88
2021/12/05 11:54:11;;;;;;;0.83;0.83;;;-6.30;99.90;;;;;;5056625;28;20710;-88
2021/12/05 11:56:46;;;;;;;0.80;0.80;;;-6.20;99.90;;;;;;5061118;28;20204;-89
2021/12/05 11:59:14;;;;;;;0.90;0.90;;;-6.20;99.90;;;;;;5059878;28;20216;-89
2021/12/05 12:01:45;;;;;;;0.90;0.90;;;-6.20;99.90;;;;;;5057019;28;20216;-89
2021/12/05 12:04:14;;;;;;;0.90;0.90;;;-6.30;99.90;;;;;;5062369;28;20327;-89
2021/12/05 12:06:41;;;;;;;0.90;0.90;;;-6.30;99.90;;;;;;5044940;28;20307;-88
2021/12/05 12:09:07;;;;;;;0.80;0.80;;;-6.40;99.90;;;;;;5057187;28;20616;-89
2021/12/05 12:11:34;;;;;;;0.90;0.90;;;-6.40;99.90;;;;;;5074841;28;20240;-89
2021/12/05 12:14:00;;;;;;;0.90;0.90;;;-6.30;99.90;;;;;;5074166;28;20208;-89
2021/12/05 12:16:27;;;;;;;0.90;0.90;;;-6.30;99.90;;;;;;5075703;28;20223;-89
2021/12/05 12:19:02;;;;;;;0.80;0.80;;;-6.30;99.90;;;;;;5063009;28;20227;-88
2021/12/05 12:21:44;;;;;;;0.90;0.90;;;-6.30;99.90;;;;;;5056299;28;20729;-89
2021/12/05 12:24:10;;;;;;;0.80;0.80;;;-6.30;99.90;;;;;;5058854;28;20258;-89
2021/12/05 12:26:39;;;;;;;1.47;1.37;;;-6.20;99.90;;;;;;5058441;28;20767;-89
2021/12/05 12:29:05;;;;;;;1.00;1.00;;;-6.30;99.90;;;;;;5057335;28;20743;-89
2021/12/05 12:31:36;;;;;;;0.90;0.90;;;-6.30;99.90;;;;;;5059588;28;20287;-90
2021/12/05 12:34:10;;;;;;;1.27;1.20;;;-6.30;99.90;;;;;;5073184;28;20266;-89
2021/12/05 12:36:39;;;;;;;1.00;1.00;;;-6.30;99.90;;;;;;5057099;28;20212;-89
2021/12/05 12:39:16;;;;;;;0.80;0.80;;;-6.40;99.90;;;;;;5071273;28;20698;-89
2021/12/05 12:41:57;;;;;;;0.90;0.90;;;-6.50;99.90;;;;;;5057795;28;20209;-89
2021/12/05 12:44:23;;;;;;;0.90;0.90;;;-6.50;99.90;;;;;;5059201;28;20240;-89
2021/12/05 12:46:57;;;;;;;0.90;0.90;;;-6.50;99.90;;;;;;5054384;28;20209;-89
2021/12/05 12:49:31;;;;;;;0.80;0.80;;;-6.50;99.90;;;;;;5069819;28;20216;-90
2021/12/05 12:52:08;;;;;;;1.13;1.10;;;-6.60;99.90;;;;;;5057920;28;20240;-89
2021/12/05 12:54:49;;;;;;;0.97;0.97;;;-6.60;99.90;;;;;;5058544;28;20213;-89
2021/12/05 12:57:34;;;;;;;0.90;0.90;;;-6.60;99.90;;;;;;5057076;28;20223;-89
2021/12/05 13:00:06;;;;;;;0.90;0.90;;;-6.50;99.90;;;;;;5054767;28;20229;-89
2021/12/05 13:03:12;;;;;;;0.90;0.90;;;-6.40;99.90;;;;;;5054732;28;20585;-89
2021/12/05 13:11:15;;;;;;;0.90;0.90;;;-6.30;99.90;;;;;;5053928;28;20220;-90
2021/12/05 13:13:43;;;;;;;2.40;2.20;;;-6.30;99.90;;;;;;5037692;28;20698;-89
2021/12/05 13:16:17;;;;;;;6.57;2.67;;;-6.20;99.90;;;;;;5052007;28;20214;-89
2021/12/05 13:18:50;;;;;;;1.00;1.00;;;-6.20;99.90;;;;;;5037994;28;20201;-89
2021/12/05 13:21:39;;;;;;;1.33;1.23;;;-6.20;99.90;;;;;;5066439;28;20206;-90
2021/12/05 13:24:34;;;;;;;1.00;1.00;;;-6.10;99.90;;;;;;5035286;28;20213;-90
2021/12/05 13:27:05;;;;;;;0.83;0.83;;;-6.10;99.90;;;;;;5035807;28;20304;-89
2021/12/05 13:29:57;;;;;;;1.07;1.07;;;-6.20;99.90;;;;;;5053579;28;20220;-89
2021/12/05 13:32:48;;;;;;;0.90;0.90;;;-6.20;99.90;;;;;;5034621;28;20927;-89
2021/12/05 13:35:24;;;;;;;1.00;1.00;;;-6.20;99.90;;;;;;5023627;28;20209;-92
2021/12/05 13:37:53;;;;;;;0.80;0.80;;;-6.20;99.90;;;;;;5053134;28;20205;-90
2021/12/05 13:40:31;;;;;;;0.80;0.80;;;-6.20;99.90;;;;;;5054107;28;20639;-86
2021/12/05 13:43:05;;;;;;;0.90;0.90;;;-6.20;99.90;;;;;;5023544;28;20213;-92
2021/12/05 13:45:43;;;;;;;0.83;0.83;;;-6.20;99.90;;;;;;5054079;28;20617;-88
2021/12/05 13:48:15;;;;;;;1.45;1.35;;;-6.20;99.90;;;;;;5045314;28;20772;-88
2021/12/05 13:50:50;;;;;;;1.00;1.00;;;-6.10;99.90;;;;;;5038434;28;20209;-91
2021/12/05 13:53:31;;;;;;;0.90;0.90;;;-6.10;99.90;;;;;;5058888;28;20750;-85
2021/12/05 13:56:35;;;;;;;1.90;1.77;;;-6.20;99.90;;;;;;5053013;28;20695;-89
2021/12/05 13:59:26;;;;;;;1.20;1.20;;;-6.20;99.90;;;;;;5035893;28;20287;-90
2021/12/05 14:01:54;;;;;;;0.90;0.90;;;-6.20;99.90;;;;;;5055543;28;20240;-90
2021/12/05 14:04:28;;;;;;;1.20;1.20;;;-6.20;99.90;;;;;;5057218;28;20223;-91
2021/12/05 14:07:06;;;;;;;0.90;0.90;;;-6.30;99.90;;;;;;5039724;28;20212;-92
2021/12/05 14:09:44;;;;;;;0.90;0.90;;;-6.30;99.90;;;;;;5056064;28;20213;-91
2021/12/05 14:12:31;;;;;;;0.90;0.90;;;-6.30;99.90;;;;;;5056426;28;20224;-90
2021/12/05 14:15:34;;;;;;;;;;;;;;;;;;;;;
2021/12/05 14:18:00;;;;;;;0.90;0.90;;;-6.40;99.90;;;;;;5073850;28;20291;-91
2021/12/05 14:20:26;;;;;;;0.87;0.87;;;-6.30;99.90;;;;;;5056446;28;20232;-90
2021/12/05 14:23:04;;;;;;;0.90;0.90;;;-6.30;99.90;;;;;;5045560;28;20235;-89
2021/12/05 14:25:57;;;;;;;1.17;1.13;;;-6.40;99.90;;;;;;5049316;28;20209;-90
2021/12/05 14:28:23;;;;;;;0.90;0.90;;;-6.40;99.90;;;;;;5048958;28;20229;-89
2021/12/05 14:30:52;;;;;;;0.90;0.90;;;-6.40;99.90;;;;;;5053056;28;20209;-91
2021/12/05 14:33:26;;;;;;;1.10;1.10;;;-6.50;99.90;;;;;;5049660;28;20240;-90
2021/12/05 14:35:54;;;;;;;1.50;1.40;;;-6.50;99.90;;;;;;5037991;28;20205;-90
2021/12/05 14:38:20;;;;;;;1.23;1.20;;;-6.40;99.90;;;;;;5047074;28;20209;-88
2021/12/05 14:40:46;;;;;;;0.80;0.80;;;-6.50;99.90;;;;;;5046155;28;20219;-89
2021/12/05 14:43:12;;;;;;;1.10;1.10;;;-6.40;99.90;;;;;;5059357;28;20213;-89
2021/12/05 14:45:41;;;;;;;0.90;0.90;;;-6.50;99.90;;;;;;5064237;28;20486;-89
2021/12/05 14:48:09;;;;;;;1.40;1.30;;;-6.50;99.90;;;;;;5036507;28;20239;-89
2021/12/05 14:50:40;;;;;;;0.90;0.90;;;-6.50;99.90;;;;;;5073577;28;20724;-89
2021/12/05 14:53:09;;;;;;;0.80;0.80;;;-6.50;99.90;;;;;;5056179;28;20246;-89
2021/12/05 14:55:35;;;;;;;0.87;0.87;;;-6.50;99.90;;;;;;5070382;28;20209;-89
2021/12/05 14:58:06;;;;;;;0.90;0.90;;;-6.50;99.90;;;;;;5071948;28;20741;-91
2021/12/05 15:00:39;;;;;;;0.90;0.90;;;-6.50;99.90;;;;;;5056053;28;20232;-90
2021/12/05 15:03:17;;;;;;;0.90;0.90;;;-6.50;99.90;;;;;;5052815;28;20204;-93
2021/12/05 15:05:59;;;;;;;0.90;0.90;;;-6.50;99.90;;;;;;5037362;28;20209;-87
2021/12/05 15:08:29;;;;;;;0.80;0.80;;;-6.50;99.90;;;;;;5053044;28;20719;-86
2021/12/05 15:11:23;;;;;;;0.90;0.90;;;-6.50;99.90;;;;;;5053968;28;20737;-86
2021/12/05 15:13:50;;;;;;;1.10;1.10;;;-6.50;99.90;;;;;;5041558;28;20209;-86
2021/12/05 15:16:23;;;;;;;14.83;4.00;;;-6.50;99.90;;;;;;5041819;28;20227;-86
2021/12/05 15:22:07;;;;;;;0.90;0.90;;;-6.60;99.90;;;;;;5067614;28;20204;-86
2021/12/05 15:24:34;;;;;;;0.90;0.90;;;-6.60;99.90;;;;;;5059943;28;20212;-87
2021/12/05 15:27:04;;;;;;;0.70;0.70;;;-6.60;99.90;;;;;;5062006;28;20619;-87
2021/12/05 15:29:31;;;;;;;1.10;1.10;;;-6.60;99.90;;;;;;5042935;28;20214;-87
2021/12/05 15:31:57;;;;;;;0.90;0.90;;;-6.60;99.90;;;;;;5034636;28;20214;-87
2021/12/05 15:34:34;;;;;;;1.00;1.00;;;-6.60;99.90;;;;;;5042603;28;20581;-86
2021/12/05 15:37:10;;;;;;;0.80;0.80;;;-6.70;99.90;;;;;;5055003;28;20211;-86
2021/12/05 15:39:42;;;;;;;0.90;0.90;;;-6.60;99.90;;;;;;5052679;28;20200;-86
2021/12/05 15:42:31;;;;;;;1.07;1.07;;;-6.60;99.90;;;;;;5053514;28;20295;-86
2021/12/05 15:45:01;;;;;;;1.10;1.10;;;-6.60;99.90;;;;;;5064163;28;20212;-87
2021/12/05 15:47:34;;;;;;;1.77;1.67;;;-6.60;99.90;;;;;;5078357;28;20237;-89
2021/12/05 15:50:09;;;;;;;0.80;0.80;;;-6.60;99.90;;;;;;5077735;28;20684;-88
2021/12/05 15:53:05;;;;;;;0.90;0.90;;;-6.60;99.90;;;;;;5040944;28;20209;-89
2021/12/05 15:55:43;;;;;;;0.73;0.73;;;-6.60;99.90;;;;;;5056275;28;20207;-90
2021/12/05 15:58:11;;;;;;;0.90;0.90;;;-6.60;99.90;;;;;;5041963;28;20202;-89
2021/12/05 16:00:50;;;;;;;0.93;0.93;;;-6.60;99.90;;;;;;5057803;28;20250;-89
2021/12/05 16:03:29;;;;;;;0.83;0.83;;;-6.60;99.90;;;;;;5041756;28;20292;-88
2021/12/05 16:05:58;;;;;;;2.10;1.93;;;-6.60;99.90;;;;;;5072468;28;20270;-87
2021/12/05 16:08:29;;;;;;;0.70;0.70;;;-6.60;99.90;;;;;;5058849;28;20205;-87
2021/12/05 16:10:59;;;;;;;0.80;0.80;;;-6.60;99.90;;;;;;5072377;28;20247;-86
2021/12/05 16:13:46;;;;;;;0.80;0.80;;;-6.60;99.90;;;;;;5057151;28;20209;-86
2021/12/05 16:16:23;;;;;;;0.90;0.90;;;-6.70;99.90;;;;;;5057045;28;20219;-88
2021/12/05 16:18:54;;;;;;;0.90;0.90;;;-6.70;99.90;;;;;;5056605;28;20197;-87
2021/12/05 16:21:27;;;;;;;1.00;1.00;;;-6.60;99.90;;;;;;5049648;28;20656;-86
2021/12/05 16:24:14;;;;;;;0.90;0.90;;;-6.70;99.90;;;;;;5071080;28;20738;-86
2021/12/05 16:26:42;;;;;;;0.90;0.90;;;-6.60;99.90;;;;;;5067073;28;20234;-86
2021/12/05 16:29:19;;;;;;;0.90;0.90;;;-6.70;99.90;;;;;;5059479;28;20201;-88
2021/12/05 16:31:50;;;;;;;1.73;1.63;;;-6.60;99.90;;;;;;5054834;28;20212;-86
2021/12/05 16:34:28;;;;;;;1.00;1.00;;;-6.60;99.90;;;;;;5076283;28;20549;-86
2021/12/05 16:36:57;;;;;;;0.90;0.90;;;-6.60;99.90;;;;;;5060113;28;20223;-86
2021/12/05 16:39:34;;;;;;;1.10;1.07;;;-6.60;99.90;;;;;;5047600;28;20206;-86
2021/12/05 16:42:05;;;;;;;1.70;1.60;;;-6.70;99.90;;;;;;5051790;28;20675;-86
2021/12/05 16:44:40;;;;;;;2.07;1.93;;;-6.70;99.90;;;;;;5063008;28;20387;-88
2021/12/05 16:47:18;;;;;;;2.13;1.93;;;-6.70;99.90;;;;;;5081705;28;20602;-87
2021/12/05 16:50:00;;;;;;;;;;;;;;;;;;;;;
2021/12/05 16:52:33;;;;;;;1.17;1.13;;;-6.70;99.90;;;;;;5073315;28;20227;-87
2021/12/05 16:55:08;;;;;;;1.80;1.63;;;-6.80;99.90;;;;;;5058212;28;20219;-88
2021/12/05 16:57:43;;;;;;;1.00;1.00;;;-6.70;99.90;;;;;;5056587;28;20200;-85
2021/12/05 17:00:17;;;;;;;0.80;0.80;;;-6.70;99.90;;;;;;5074107;28;20228;-87
2021/12/05 17:02:51;;;;;;;0.90;0.90;;;-6.70;99.90;;;;;;5055101;28;20252;-86
2021/12/05 17:05:22;;;;;;;0.90;0.90;;;-6.70;99.90;;;;;;5053143;28;20224;-86
2021/12/05 17:08:09;;;;;;;0.90;0.90;;;-6.80;99.90;;;;;;5055961;28;20212;-85
2021/12/05 17:10:37;;;;;;;1.30;1.20;;;-6.80;99.90;;;;;;5055673;28;20213;-88
2021/12/05 17:13:38;;;;;;;2.30;1.73;;;-6.80;99.90;;;;;;5058322;28;20216;-87
2021/12/05 17:16:21;;;;;;;1.50;1.40;;;-6.80;99.90;;;;;;5071686;28;20360;-86
2021/12/05 17:18:57;;;;;;;0.90;0.90;;;-6.90;99.90;;;;;;5056016;28;20355;-87
2021/12/05 17:21:49;;;;;;;1.00;1.00;;;-6.90;99.90;;;;;;5057390;28;20243;-86
2021/12/05 17:24:24;;;;;;;1.30;1.27;;;-6.90;99.90;;;;;;5059451;28;20208;-87
2021/12/05 17:27:05;;;;;;;0.80;0.80;;;-6.90;99.90;;;;;;5058452;28;20254;-87
2021/12/05 17:29:39;;;;;;;1.07;1.07;;;-7.00;99.90;;;;;;5056030;28;20247;-86
2021/12/05 17:32:09;;;;;;;0.97;0.97;;;-7.00;99.90;;;;;;5059573;28;20575;-87
2021/12/05 17:34:48;;;;;;;0.80;0.80;;;-7.00;99.90;;;;;;5065534;28;20688;-87
2021/12/05 17:37:21;;;;;;;6.90;3.33;;;-7.10;99.90;;;;;;5054856;28;20208;-85
2021/12/05 17:39:50;;;;;;;1.47;1.37;;;-7.10;99.90;;;;;;5047955;28;20205;-87
2021/12/05 17:42:23;;;;;;;1.67;1.57;;;-7.10;99.90;;;;;;5055700;28;20320;-88
2021/12/05 17:45:00;;;;;;;1.03;1.03;;;-7.10;99.90;;;;;;5066114;28;20289;-88
2021/12/05 17:47:27;;;;;;;0.80;0.80;;;-7.10;99.90;;;;;;5048474;28;20583;-85
2021/12/05 17:49:57;;;;;;;1.50;1.40;;;-7.10;99.90;;;;;;5052853;28;20217;-88
2021/12/05 17:52:25;;;;;;;0.90;0.90;;;-7.10;99.90;;;;;;5042244;28;20217;-85
2021/12/05 17:55:01;;;;;;;0.90;0.90;;;-7.20;99.90;;;;;;5064796;28;20220;-85
2021/12/05 17:57:38;;;;;;;0.90;0.90;;;-7.10;99.90;;;;;;5054912;28;20204;-86
2021/12/05 18:00:55;;;;;;;0.90;0.90;;;-7.20;99.90;;;;;;5050580;28;20221;-85
2021/12/05 18:03:24;;;;;;;0.90;0.90;;;-7.30;99.90;;;;;;5038342;28;20217;-85
2021/12/05 18:05:51;;;;;;;1.00;1.00;;;-7.30;99.90;;;;;;5052001;28;20252;-86
2021/12/05 18:08:24;;;;;;;0.90;0.90;;;-7.40;99.90;;;;;;5055498;28;20303;-89
2021/12/05 18:10:55;;;;;;;0.93;0.93;;;-7.40;99.90;;;;;;5057159;28;20622;-86
2021/12/05 18:13:24;;;;;;;0.90;0.90;;;-7.40;99.90;;;;;;5056905;28;20217;-86
2021/12/05 18:16:03;;;;;;;0.90;0.90;;;-7.50;99.90;;;;;;5054712;28;20247;-86
2021/12/05 18:18:32;;;;;;;3.03;1.73;;;-7.60;99.90;;;;;;5055531;28;20204;-86
2021/12/05 18:21:00;;;;;;;0.83;0.83;;;-7.60;99.90;;;;;;5035551;28;20592;-85
2021/12/05 18:23:27;;;;;;;1.13;1.13;;;-7.70;99.90;;;;;;5055472;28;20223;-88
2021/12/05 18:25:56;;;;;;;0.90;0.90;;;-7.80;99.90;;;;;;5045311;28;20214;-86
2021/12/05 18:28:22;;;;;;;2.63;1.87;;;-7.90;99.90;;;;;;5063097;28;20228;-86
2021/12/05 18:30:48;;;;;;;0.97;0.97;;;-8.00;99.90;;;;;;5054294;28;20297;-86